sensor_id;sensor_type;location;lat;lon;timestamp;P1;durP1;ratioP1;P2;durP2;ratioP2
48040;SDS011;33815;48.386;11.738;2023-11-19T00:00:05;1.27;;;1.27;;
48040;SDS011;33815;48.386;11.738;2023-11-19T00:02:31;1.50;;;1.40;;
48040;SDS011;33815;48.386;11.738;2023-11-19T00:04:56;2.13;;;2.03;;
48040;SDS011;33815;48.386;11.738;2023-11-19T00:07:22;1.92;;;1.83;;
48040;SDS011;33815;48.386;11.738;2023-11-19T00:09:47;1.60;;;1.50;;
48040;SDS011;33815;48.386;11.738;2023-11-19T00:12:12;1.80;;;1.70;;
48040;SDS011;33815;48.386;11.738;2023-11-19T00:14:38;1.90;;;1.80;;
48040;SDS011;33815;48.386;11.738;2023-11-19T00:17:03;1.95;;;1.70;;
48040;SDS011;33815;48.386;11.738;2023-11-19T00:19:29;3.33;;;1.63;;
48040;SDS011;33815;48.386;11.738;2023-11-19T00:21:54;1.70;;;1.60;;
48040;SDS011;33815;48.386;11.738;2023-11-19T00:24:19;1.75;;;1.65;;
48040;SDS011;33815;48.386;11.738;2023-11-19T00:26:45;1.75;;;1.65;;
48040;SDS011;33815;48.386;11.738;2023-11-19T00:29:10;1.70;;;1.60;;
48040;SDS011;33815;48.386;11.738;2023-11-19T00:31:36;1.75;;;1.58;;
48040;SDS011;33815;48.386;11.738;2023-11-19T00:34:01;1.73;;;1.63;;
48040;SDS011;33815;48.386;11.738;2023-11-19T00:36:27;1.85;;;1.75;;
48040;SDS011;33815;48.386;11.738;2023-11-19T00:38:53;1.90;;;1.80;;
48040;SDS011;33815;48.386;11.738;2023-11-19T00:41:19;2.20;;;1.98;;
48040;SDS011;33815;48.386;11.738;2023-11-19T00:43:44;2.20;;;2.08;;
48040;SDS011;33815;48.386;11.738;2023-11-19T00:46:10;3.17;;;1.73;;
48040;SDS011;33815;48.386;11.738;2023-11-19T00:48:38;1.83;;;1.70;;
48040;SDS011;33815;48.386;11.738;2023-11-19T00:51:05;2.92;;;2.13;;
48040;SDS011;33815;48.386;11.738;2023-11-19T00:53:30;2.10;;;2.00;;
48040;SDS011;33815;48.386;11.738;2023-11-19T00:55:58;2.00;;;1.90;;
48040;SDS011;33815;48.386;11.738;2023-11-19T00:58:24;3.03;;;2.40;;
48040;SDS011;33815;48.386;11.738;2023-11-19T01:00:49;2.38;;;2.17;;
48040;SDS011;33815;48.386;11.738;2023-11-19T01:03:15;2.15;;;2.05;;
48040;SDS011;33815;48.386;11.738;2023-11-19T01:05:41;2.00;;;1.90;;
48040;SDS011;33815;48.386;11.738;2023-11-19T01:08:06;2.25;;;2.05;;
48040;SDS011;33815;48.386;11.738;2023-11-19T01:10:33;2.90;;;2.40;;
48040;SDS011;33815;48.386;11.738;2023-11-19T01:12:58;2.65;;;2.45;;
48040;SDS011;33815;48.386;11.738;2023-11-19T01:15:24;2.75;;;2.55;;
48040;SDS011;33815;48.386;11.738;2023-11-19T01:17:49;2.95;;;2.70;;
48040;SDS011;33815;48.386;11.738;2023-11-19T01:20:15;2.92;;;2.67;;
48040;SDS011;33815;48.386;11.738;2023-11-19T01:22:40;3.88;;;2.58;;
48040;SDS011;33815;48.386;11.738;2023-11-19T01:25:06;3.28;;;2.97;;
48040;SDS011;33815;48.386;11.738;2023-11-19T01:27:32;2.83;;;2.63;;
48040;SDS011;33815;48.386;11.738;2023-11-19T01:29:59;2.75;;;2.45;;
48040;SDS011;33815;48.386;11.738;2023-11-19T01:32:28;2.63;;;2.42;;
48040;SDS011;33815;48.386;11.738;2023-11-19T01:34:53;3.05;;;2.83;;
48040;SDS011;33815;48.386;11.738;2023-11-19T01:37:19;4.13;;;2.83;;
48040;SDS011;33815;48.386;11.738;2023-11-19T01:39:44;2.97;;;2.78;;
48040;SDS011;33815;48.386;11.738;2023-11-19T01:42:10;3.25;;;2.95;;
48040;SDS011;33815;48.386;11.738;2023-11-19T01:44:36;3.20;;;2.90;;
48040;SDS011;33815;48.386;11.738;2023-11-19T01:47:02;3.13;;;2.90;;
48040;SDS011;33815;48.386;11.738;2023-11-19T01:49:28;2.90;;;2.70;;
48040;SDS011;33815;48.386;11.738;2023-11-19T01:51:57;4.57;;;3.10;;
48040;SDS011;33815;48.386;11.738;2023-11-19T01:54:23;3.80;;;3.05;;
48040;SDS011;33815;48.386;11.738;2023-11-19T01:56:48;6.10;;;4.35;;
48040;SDS011;33815;48.386;11.738;2023-11-19T01:59:14;3.58;;;3.28;;
48040;SDS011;33815;48.386;11.738;2023-11-19T02:01:40;4.40;;;3.35;;
48040;SDS011;33815;48.386;11.738;2023-11-19T02:04:07;4.13;;;3.72;;
48040;SDS011;33815;48.386;11.738;2023-11-19T02:06:33;6.30;;;3.67;;
48040;SDS011;33815;48.386;11.738;2023-11-19T02:08:59;4.15;;;3.75;;
48040;SDS011;33815;48.386;11.738;2023-11-19T02:11:25;4.47;;;4.07;;
48040;SDS011;33815;48.386;11.738;2023-11-19T02:13:54;4.55;;;4.00;;
48040;SDS011;33815;48.386;11.738;2023-11-19T02:16:20;3.97;;;3.65;;
48040;SDS011;33815;48.386;11.738;2023-11-19T02:18:45;5.93;;;3.85;;
48040;SDS011;33815;48.386;11.738;2023-11-19T02:21:10;4.10;;;3.50;;
48040;SDS011;33815;48.386;11.738;2023-11-19T02:23:36;4.22;;;3.83;;
48040;SDS011;33815;48.386;11.738;2023-11-19T02:28:53;4.35;;;3.78;;
48040;SDS011;33815;48.386;11.738;2023-11-19T02:31:19;3.80;;;3.47;;
48040;SDS011;33815;48.386;11.738;2023-11-19T02:33:45;4.30;;;3.78;;
48040;SDS011;33815;48.386;11.738;2023-11-19T02:36:10;4.68;;;3.80;;
48040;SDS011;33815;48.386;11.738;2023-11-19T02:38:36;5.55;;;3.92;;
48040;SDS011;33815;48.386;11.738;2023-11-19T02:41:06;6.95;;;5.85;;
48040;SDS011;33815;48.386;11.738;2023-11-19T02:43:32;4.80;;;3.67;;
48040;SDS011;33815;48.386;11.738;2023-11-19T02:45:59;5.88;;;3.55;;
48040;SDS011;33815;48.386;11.738;2023-11-19T02:48:28;4.68;;;4.28;;
48040;SDS011;33815;48.386;11.738;2023-11-19T02:50:53;5.63;;;3.63;;
48040;SDS011;33815;48.386;11.738;2023-11-19T02:53:19;4.75;;;4.35;;
48040;SDS011;33815;48.386;11.738;2023-11-19T02:55:47;6.20;;;3.90;;
48040;SDS011;33815;48.386;11.738;2023-11-19T02:58:14;5.05;;;4.25;;
48040;SDS011;33815;48.386;11.738;2023-11-19T03:00:48;5.82;;;4.72;;
48040;SDS011;33815;48.386;11.738;2023-11-19T03:03:21;4.82;;;4.30;;
48040;SDS011;33815;48.386;11.738;2023-11-19T03:05:48;5.25;;;4.75;;
48040;SDS011;33815;48.386;11.738;2023-11-19T03:08:14;6.18;;;4.75;;
48040;SDS011;33815;48.386;11.738;2023-11-19T03:10:42;5.45;;;4.38;;
48040;SDS011;33815;48.386;11.738;2023-11-19T03:13:10;6.78;;;3.63;;
48040;SDS011;33815;48.386;11.738;2023-11-19T03:15:38;6.93;;;4.72;;
48040;SDS011;33815;48.386;11.738;2023-11-19T03:18:04;5.35;;;4.53;;
48040;SDS011;33815;48.386;11.738;2023-11-19T03:20:29;5.90;;;4.97;;
48040;SDS011;33815;48.386;11.738;2023-11-19T03:22:55;6.07;;;4.68;;
48040;SDS011;33815;48.386;11.738;2023-11-19T03:25:20;6.25;;;4.88;;
48040;SDS011;33815;48.386;11.738;2023-11-19T03:27:46;4.82;;;4.10;;
48040;SDS011;33815;48.386;11.738;2023-11-19T03:30:11;8.98;;;5.07;;
48040;SDS011;33815;48.386;11.738;2023-11-19T03:32:36;6.90;;;5.15;;
48040;SDS011;33815;48.386;11.738;2023-11-19T03:35:03;5.80;;;4.57;;
48040;SDS011;33815;48.386;11.738;2023-11-19T03:37:29;6.82;;;5.25;;
48040;SDS011;33815;48.386;11.738;2023-11-19T03:39:56;8.10;;;5.30;;
48040;SDS011;33815;48.386;11.738;2023-11-19T03:42:24;6.50;;;5.30;;
48040;SDS011;33815;48.386;11.738;2023-11-19T03:44:51;8.80;;;5.43;;
48040;SDS011;33815;48.386;11.738;2023-11-19T03:47:17;5.88;;;4.93;;
48040;SDS011;33815;48.386;11.738;2023-11-19T03:49:42;8.57;;;5.53;;
48040;SDS011;33815;48.386;11.738;2023-11-19T03:52:13;7.03;;;5.65;;
48040;SDS011;33815;48.386;11.738;2023-11-19T03:54:38;9.27;;;4.78;;
48040;SDS011;33815;48.386;11.738;2023-11-19T03:57:04;8.53;;;5.37;;
48040;SDS011;33815;48.386;11.738;2023-11-19T03:59:30;7.65;;;5.22;;
48040;SDS011;33815;48.386;11.738;2023-11-19T04:01:55;6.22;;;5.32;;
48040;SDS011;33815;48.386;11.738;2023-11-19T04:04:21;7.45;;;5.80;;
48040;SDS011;33815;48.386;11.738;2023-11-19T04:06:47;7.72;;;5.03;;
48040;SDS011;33815;48.386;11.738;2023-11-19T04:09:12;9.00;;;5.97;;
48040;SDS011;33815;48.386;11.738;2023-11-19T04:11:37;7.20;;;5.23;;
48040;SDS011;33815;48.386;11.738;2023-11-19T04:14:03;8.07;;;5.72;;
48040;SDS011;33815;48.386;11.738;2023-11-19T04:16:28;9.13;;;5.43;;
48040;SDS011;33815;48.386;11.738;2023-11-19T04:18:53;12.40;;;6.00;;
48040;SDS011;33815;48.386;11.738;2023-11-19T04:21:19;7.63;;;5.18;;
48040;SDS011;33815;48.386;11.738;2023-11-19T04:23:44;10.13;;;5.53;;
48040;SDS011;33815;48.386;11.738;2023-11-19T04:26:09;6.93;;;5.20;;
48040;SDS011;33815;48.386;11.738;2023-11-19T04:28:35;7.68;;;5.22;;
48040;SDS011;33815;48.386;11.738;2023-11-19T04:31:00;6.00;;;4.32;;
48040;SDS011;33815;48.386;11.738;2023-11-19T04:33:26;3.72;;;3.00;;
48040;SDS011;33815;48.386;11.738;2023-11-19T04:35:51;2.70;;;2.10;;
48040;SDS011;33815;48.386;11.738;2023-11-19T04:38:16;1.52;;;1.42;;
48040;SDS011;33815;48.386;11.738;2023-11-19T04:40:41;4.33;;;1.50;;
48040;SDS011;33815;48.386;11.738;2023-11-19T04:43:07;1.40;;;1.30;;
48040;SDS011;33815;48.386;11.738;2023-11-19T04:45:32;1.77;;;1.50;;
48040;SDS011;33815;48.386;11.738;2023-11-19T04:47:57;1.45;;;1.40;;
48040;SDS011;33815;48.386;11.738;2023-11-19T04:50:22;1.30;;;1.30;;
48040;SDS011;33815;48.386;11.738;2023-11-19T04:52:48;1.57;;;1.30;;
48040;SDS011;33815;48.386;11.738;2023-11-19T04:55:13;1.20;;;1.20;;
48040;SDS011;33815;48.386;11.738;2023-11-19T04:57:39;1.10;;;1.10;;
48040;SDS011;33815;48.386;11.738;2023-11-19T05:00:05;2.42;;;1.33;;
48040;SDS011;33815;48.386;11.738;2023-11-19T05:02:31;1.23;;;1.23;;
48040;SDS011;33815;48.386;11.738;2023-11-19T05:04:56;1.33;;;1.30;;
48040;SDS011;33815;48.386;11.738;2023-11-19T05:07:22;1.40;;;1.30;;
48040;SDS011;33815;48.386;11.738;2023-11-19T05:09:47;1.52;;;1.42;;
48040;SDS011;33815;48.386;11.738;2023-11-19T05:12:12;0.98;;;0.98;;
48040;SDS011;33815;48.386;11.738;2023-11-19T05:14:38;1.30;;;1.23;;
48040;SDS011;33815;48.386;11.738;2023-11-19T05:17:03;1.30;;;1.20;;
48040;SDS011;33815;48.386;11.738;2023-11-19T05:19:29;1.20;;;1.10;;
48040;SDS011;33815;48.386;11.738;2023-11-19T05:21:54;1.37;;;1.27;;
48040;SDS011;33815;48.386;11.738;2023-11-19T05:24:19;1.90;;;1.30;;
48040;SDS011;33815;48.386;11.738;2023-11-19T05:26:44;1.40;;;1.30;;
48040;SDS011;33815;48.386;11.738;2023-11-19T05:29:10;1.38;;;1.30;;
48040;SDS011;33815;48.386;11.738;2023-11-19T05:31:35;1.20;;;1.10;;
48040;SDS011;33815;48.386;11.738;2023-11-19T05:34:00;4.88;;;1.10;;
48040;SDS011;33815;48.386;11.738;2023-11-19T05:36:25;1.10;;;1.10;;
48040;SDS011;33815;48.386;11.738;2023-11-19T05:38:52;1.00;;;1.00;;
48040;SDS011;33815;48.386;11.738;2023-11-19T05:41:18;1.20;;;1.10;;
48040;SDS011;33815;48.386;11.738;2023-11-19T05:43:43;2.70;;;2.50;;
48040;SDS011;33815;48.386;11.738;2023-11-19T05:46:08;1.10;;;1.10;;
48040;SDS011;33815;48.386;11.738;2023-11-19T05:48:33;1.30;;;1.00;;
48040;SDS011;33815;48.386;11.738;2023-11-19T05:50:59;1.30;;;1.20;;
48040;SDS011;33815;48.386;11.738;2023-11-19T05:53:25;1.20;;;0.90;;
48040;SDS011;33815;48.386;11.738;2023-11-19T05:55:50;1.10;;;1.10;;
48040;SDS011;33815;48.386;11.738;2023-11-19T05:58:28;1.00;;;0.98;;
48040;SDS011;33815;48.386;11.738;2023-11-19T06:00:54;1.02;;;1.02;;
48040;SDS011;33815;48.386;11.738;2023-11-19T06:03:20;1.33;;;1.23;;
48040;SDS011;33815;48.386;11.738;2023-11-19T06:05:46;1.50;;;1.20;;
48040;SDS011;33815;48.386;11.738;2023-11-19T06:08:12;1.60;;;1.20;;
48040;SDS011;33815;48.386;11.738;2023-11-19T06:10:41;1.27;;;1.23;;
48040;SDS011;33815;48.386;11.738;2023-11-19T06:13:06;1.67;;;1.40;;
48040;SDS011;33815;48.386;11.738;2023-11-19T06:15:34;2.00;;;1.30;;
48040;SDS011;33815;48.386;11.738;2023-11-19T06:18:00;1.00;;;1.00;;
48040;SDS011;33815;48.386;11.738;2023-11-19T06:20:26;1.10;;;1.00;;
48040;SDS011;33815;48.386;11.738;2023-11-19T06:22:54;25.50;;;15.65;;
48040;SDS011;33815;48.386;11.738;2023-11-19T06:25:19;21.60;;;11.35;;
48040;SDS011;33815;48.386;11.738;2023-11-19T06:27:44;8.53;;;4.90;;
48040;SDS011;33815;48.386;11.738;2023-11-19T06:30:10;15.15;;;7.80;;
48040;SDS011;33815;48.386;11.738;2023-11-19T06:32:36;59.50;;;25.52;;
48040;SDS011;33815;48.386;11.738;2023-11-19T06:35:02;108.95;;;45.97;;
48040;SDS011;33815;48.386;11.738;2023-11-19T06:37:29;22.65;;;11.30;;
48040;SDS011;33815;48.386;11.738;2023-11-19T06:39:55;43.55;;;18.65;;
48040;SDS011;33815;48.386;11.738;2023-11-19T06:42:20;3.60;;;3.03;;
48040;SDS011;33815;48.386;11.738;2023-11-19T06:44:45;1.90;;;1.70;;
48040;SDS011;33815;48.386;11.738;2023-11-19T06:47:10;7.25;;;3.40;;
48040;SDS011;33815;48.386;11.738;2023-11-19T06:49:36;2.20;;;1.70;;
48040;SDS011;33815;48.386;11.738;2023-11-19T06:52:01;22.53;;;8.57;;
48040;SDS011;33815;48.386;11.738;2023-11-19T06:54:26;1.50;;;1.40;;
48040;SDS011;33815;48.386;11.738;2023-11-19T06:56:52;5.13;;;4.60;;
48040;SDS011;33815;48.386;11.738;2023-11-19T06:59:17;7.72;;;5.57;;
48040;SDS011;33815;48.386;11.738;2023-11-19T07:01:42;18.42;;;11.65;;
48040;SDS011;33815;48.386;11.738;2023-11-19T07:04:10;2.92;;;2.53;;
48040;SDS011;33815;48.386;11.738;2023-11-19T07:06:36;7.90;;;6.47;;
48040;SDS011;33815;48.386;11.738;2023-11-19T07:09:02;9.47;;;8.57;;
48040;SDS011;33815;48.386;11.738;2023-11-19T07:11:34;2.30;;;2.05;;
48040;SDS011;33815;48.386;11.738;2023-11-19T07:14:03;3.55;;;3.25;;
48040;SDS011;33815;48.386;11.738;2023-11-19T07:16:29;2.47;;;2.30;;
48040;SDS011;33815;48.386;11.738;2023-11-19T07:18:54;2.05;;;1.10;;
48040;SDS011;33815;48.386;11.738;2023-11-19T07:21:20;2.13;;;1.25;;
48040;SDS011;33815;48.386;11.738;2023-11-19T07:23:45;5.25;;;4.80;;
48040;SDS011;33815;48.386;11.738;2023-11-19T07:26:11;2.78;;;2.58;;
48040;SDS011;33815;48.386;11.738;2023-11-19T07:28:37;3.47;;;1.40;;
48040;SDS011;33815;48.386;11.738;2023-11-19T07:31:04;7.63;;;5.28;;
48040;SDS011;33815;48.386;11.738;2023-11-19T07:33:32;7.13;;;4.15;;
48040;SDS011;33815;48.386;11.738;2023-11-19T07:35:58;1.17;;;1.10;;
48040;SDS011;33815;48.386;11.738;2023-11-19T07:38:23;1.60;;;1.00;;
48040;SDS011;33815;48.386;11.738;2023-11-19T07:40:48;1.80;;;1.60;;
48040;SDS011;33815;48.386;11.738;2023-11-19T07:43:13;1.47;;;1.10;;
48040;SDS011;33815;48.386;11.738;2023-11-19T07:45:38;1.30;;;1.20;;
48040;SDS011;33815;48.386;11.738;2023-11-19T07:48:04;3.03;;;0.90;;
48040;SDS011;33815;48.386;11.738;2023-11-19T07:50:31;0.90;;;0.90;;
48040;SDS011;33815;48.386;11.738;2023-11-19T07:52:56;1.05;;;1.00;;
48040;SDS011;33815;48.386;11.738;2023-11-19T07:55:22;0.85;;;0.85;;
48040;SDS011;33815;48.386;11.738;2023-11-19T07:57:47;1.33;;;1.07;;
48040;SDS011;33815;48.386;11.738;2023-11-19T08:00:14;0.90;;;0.90;;
48040;SDS011;33815;48.386;11.738;2023-11-19T08:02:39;0.98;;;0.88;;
48040;SDS011;33815;48.386;11.738;2023-11-19T08:05:04;0.80;;;0.80;;
48040;SDS011;33815;48.386;11.738;2023-11-19T08:07:30;0.73;;;0.73;;
48040;SDS011;33815;48.386;11.738;2023-11-19T08:09:56;0.80;;;0.80;;
48040;SDS011;33815;48.386;11.738;2023-11-19T08:12:21;0.80;;;0.80;;
48040;SDS011;33815;48.386;11.738;2023-11-19T08:14:47;3.20;;;0.68;;
48040;SDS011;33815;48.386;11.738;2023-11-19T08:17:12;0.68;;;0.68;;
48040;SDS011;33815;48.386;11.738;2023-11-19T08:19:37;0.65;;;0.60;;
48040;SDS011;33815;48.386;11.738;2023-11-19T08:22:03;0.88;;;0.70;;
48040;SDS011;33815;48.386;11.738;2023-11-19T08:24:28;1.45;;;0.70;;
48040;SDS011;33815;48.386;11.738;2023-11-19T08:26:53;0.60;;;0.60;;
48040;SDS011;33815;48.386;11.738;2023-11-19T08:29:19;0.73;;;0.73;;
48040;SDS011;33815;48.386;11.738;2023-11-19T08:31:44;0.88;;;0.80;;
48040;SDS011;33815;48.386;11.738;2023-11-19T08:34:11;0.80;;;0.80;;
48040;SDS011;33815;48.386;11.738;2023-11-19T08:36:36;1.35;;;1.25;;
48040;SDS011;33815;48.386;11.738;2023-11-19T08:39:02;0.82;;;0.70;;
48040;SDS011;33815;48.386;11.738;2023-11-19T08:41:28;0.90;;;0.90;;
48040;SDS011;33815;48.386;11.738;2023-11-19T08:43:53;0.68;;;0.68;;
48040;SDS011;33815;48.386;11.738;2023-11-19T08:46:18;1.77;;;0.60;;
48040;SDS011;33815;48.386;11.738;2023-11-19T08:48:43;1.38;;;0.70;;
48040;SDS011;33815;48.386;11.738;2023-11-19T08:51:09;0.50;;;0.50;;
48040;SDS011;33815;48.386;11.738;2023-11-19T08:53:34;22.27;;;2.50;;
48040;SDS011;33815;48.386;11.738;2023-11-19T08:56:00;0.60;;;0.60;;
48040;SDS011;33815;48.386;11.738;2023-11-19T08:58:27;0.90;;;0.60;;
48040;SDS011;33815;48.386;11.738;2023-11-19T09:00:52;0.60;;;0.60;;
48040;SDS011;33815;48.386;11.738;2023-11-19T09:03:18;0.50;;;0.50;;
48040;SDS011;33815;48.386;11.738;2023-11-19T09:05:43;0.50;;;0.50;;
48040;SDS011;33815;48.386;11.738;2023-11-19T09:08:09;0.50;;;0.50;;
48040;SDS011;33815;48.386;11.738;2023-11-19T09:10:36;0.50;;;0.50;;
48040;SDS011;33815;48.386;11.738;2023-11-19T09:13:02;0.57;;;0.52;;
48040;SDS011;33815;48.386;11.738;2023-11-19T09:15:28;0.70;;;0.70;;
48040;SDS011;33815;48.386;11.738;2023-11-19T09:17:54;1.13;;;0.60;;
48040;SDS011;33815;48.386;11.738;2023-11-19T09:20:19;0.60;;;0.60;;
48040;SDS011;33815;48.386;11.738;2023-11-19T09:22:44;0.70;;;0.70;;
48040;SDS011;33815;48.386;11.738;2023-11-19T09:25:10;1.23;;;0.85;;
48040;SDS011;33815;48.386;11.738;2023-11-19T09:27:35;0.90;;;0.90;;
48040;SDS011;33815;48.386;11.738;2023-11-19T09:30:00;0.93;;;0.80;;
48040;SDS011;33815;48.386;11.738;2023-11-19T09:32:25;0.77;;;0.77;;
48040;SDS011;33815;48.386;11.738;2023-11-19T09:34:51;0.82;;;0.82;;
48040;SDS011;33815;48.386;11.738;2023-11-19T09:37:16;0.60;;;0.60;;
48040;SDS011;33815;48.386;11.738;2023-11-19T09:39:41;0.55;;;0.55;;
48040;SDS011;33815;48.386;11.738;2023-11-19T09:42:09;0.63;;;0.63;;
48040;SDS011;33815;48.386;11.738;2023-11-19T09:44:34;0.73;;;0.63;;
48040;SDS011;33815;48.386;11.738;2023-11-19T09:47:02;1.17;;;0.55;;
48040;SDS011;33815;48.386;11.738;2023-11-19T09:49:28;0.65;;;0.65;;
48040;SDS011;33815;48.386;11.738;2023-11-19T09:51:55;1.10;;;0.68;;
48040;SDS011;33815;48.386;11.738;2023-11-19T09:54:20;0.70;;;0.70;;
48040;SDS011;33815;48.386;11.738;2023-11-19T09:56:45;2.00;;;0.60;;
48040;SDS011;33815;48.386;11.738;2023-11-19T09:59:11;0.50;;;0.50;;
48040;SDS011;33815;48.386;11.738;2023-11-19T10:01:37;0.60;;;0.60;;
48040;SDS011;33815;48.386;11.738;2023-11-19T10:04:03;0.60;;;0.60;;
48040;SDS011;33815;48.386;11.738;2023-11-19T10:06:29;0.60;;;0.60;;
48040;SDS011;33815;48.386;11.738;2023-11-19T10:08:55;0.50;;;0.50;;
48040;SDS011;33815;48.386;11.738;2023-11-19T10:11:20;3.70;;;0.60;;
48040;SDS011;33815;48.386;11.738;2023-11-19T10:13:46;0.45;;;0.45;;
48040;SDS011;33815;48.386;11.738;2023-11-19T10:16:12;0.68;;;0.68;;
48040;SDS011;33815;48.386;11.738;2023-11-19T10:18:44;0.50;;;0.50;;
48040;SDS011;33815;48.386;11.738;2023-11-19T10:21:12;2.05;;;0.77;;
48040;SDS011;33815;48.386;11.738;2023-11-19T10:23:54;0.60;;;0.60;;
48040;SDS011;33815;48.386;11.738;2023-11-19T10:26:25;0.63;;;0.57;;
48040;SDS011;33815;48.386;11.738;2023-11-19T10:28:51;0.55;;;0.55;;
48040;SDS011;33815;48.386;11.738;2023-11-19T10:31:17;0.40;;;0.40;;
48040;SDS011;33815;48.386;11.738;2023-11-19T10:33:43;0.60;;;0.60;;
48040;SDS011;33815;48.386;11.738;2023-11-19T10:36:10;0.80;;;0.80;;
48040;SDS011;33815;48.386;11.738;2023-11-19T10:38:38;0.60;;;0.60;;
48040;SDS011;33815;48.386;11.738;2023-11-19T10:41:04;0.93;;;0.80;;
48040;SDS011;33815;48.386;11.738;2023-11-19T10:43:30;0.40;;;0.40;;
48040;SDS011;33815;48.386;11.738;2023-11-19T10:46:08;1.85;;;0.50;;
48040;SDS011;33815;48.386;11.738;2023-11-19T10:48:35;0.80;;;0.80;;
48040;SDS011;33815;48.386;11.738;2023-11-19T10:51:00;1.42;;;0.70;;
48040;SDS011;33815;48.386;11.738;2023-11-19T10:53:29;0.80;;;0.80;;
48040;SDS011;33815;48.386;11.738;2023-11-19T10:55:55;0.70;;;0.70;;
48040;SDS011;33815;48.386;11.738;2023-11-19T10:58:24;0.90;;;0.63;;
48040;SDS011;33815;48.386;11.738;2023-11-19T11:00:52;0.60;;;0.50;;
48040;SDS011;33815;48.386;11.738;2023-11-19T11:03:24;0.50;;;0.50;;
48040;SDS011;33815;48.386;11.738;2023-11-19T11:05:52;0.50;;;0.50;;
48040;SDS011;33815;48.386;11.738;2023-11-19T11:08:18;1.08;;;0.47;;
48040;SDS011;33815;48.386;11.738;2023-11-19T11:13:18;1.17;;;0.60;;
48040;SDS011;33815;48.386;11.738;2023-11-19T11:15:44;1.88;;;0.47;;
48040;SDS011;33815;48.386;11.738;2023-11-19T11:18:11;0.50;;;0.50;;
48040;SDS011;33815;48.386;11.738;2023-11-19T11:20:38;0.50;;;0.50;;
48040;SDS011;33815;48.386;11.738;2023-11-19T11:23:21;0.52;;;0.52;;
48040;SDS011;33815;48.386;11.738;2023-11-19T11:29:00;3.03;;;0.70;;
48040;SDS011;33815;48.386;11.738;2023-11-19T11:31:44;0.52;;;0.52;;
48040;SDS011;33815;48.386;11.738;2023-11-19T11:34:18;0.60;;;0.60;;
48040;SDS011;33815;48.386;11.738;2023-11-19T11:39:39;0.57;;;0.57;;
48040;SDS011;33815;48.386;11.738;2023-11-19T11:45:16;0.50;;;0.50;;
48040;SDS011;33815;48.386;11.738;2023-11-19T11:50:13;0.47;;;0.47;;
48040;SDS011;33815;48.386;11.738;2023-11-19T11:53:13;0.35;;;0.35;;
48040;SDS011;33815;48.386;11.738;2023-11-19T11:58:12;0.50;;;0.50;;
48040;SDS011;33815;48.386;11.738;2023-11-19T12:00:39;1.10;;;0.40;;
48040;SDS011;33815;48.386;11.738;2023-11-19T12:03:06;0.95;;;0.80;;
48040;SDS011;33815;48.386;11.738;2023-11-19T12:05:33;0.50;;;0.47;;
48040;SDS011;33815;48.386;11.738;2023-11-19T12:08:04;0.35;;;0.35;;
48040;SDS011;33815;48.386;11.738;2023-11-19T12:10:32;0.60;;;0.60;;
48040;SDS011;33815;48.386;11.738;2023-11-19T12:13:06;0.50;;;0.50;;
48040;SDS011;33815;48.386;11.738;2023-11-19T12:15:48;0.70;;;0.50;;
48040;SDS011;33815;48.386;11.738;2023-11-19T12:18:26;1.02;;;0.60;;
48040;SDS011;33815;48.386;11.738;2023-11-19T12:20:52;1.10;;;0.50;;
48040;SDS011;33815;48.386;11.738;2023-11-19T12:23:17;0.57;;;0.57;;
48040;SDS011;33815;48.386;11.738;2023-11-19T12:25:43;0.30;;;0.28;;
48040;SDS011;33815;48.386;11.738;2023-11-19T12:28:13;0.45;;;0.45;;
48040;SDS011;33815;48.386;11.738;2023-11-19T12:30:39;1.42;;;0.50;;
48040;SDS011;33815;48.386;11.738;2023-11-19T12:33:11;0.38;;;0.38;;
48040;SDS011;33815;48.386;11.738;2023-11-19T12:35:41;0.30;;;0.30;;
48040;SDS011;33815;48.386;11.738;2023-11-19T12:40:46;1.05;;;1.05;;
48040;SDS011;33815;48.386;11.738;2023-11-19T12:43:11;0.60;;;0.57;;
48040;SDS011;33815;48.386;11.738;2023-11-19T12:45:47;1.02;;;0.50;;
48040;SDS011;33815;48.386;11.738;2023-11-19T12:48:12;0.40;;;0.40;;
48040;SDS011;33815;48.386;11.738;2023-11-19T12:50:56;0.50;;;0.50;;
48040;SDS011;33815;48.386;11.738;2023-11-19T12:53:23;1.85;;;0.40;;
48040;SDS011;33815;48.386;11.738;2023-11-19T12:55:50;0.40;;;0.40;;
48040;SDS011;33815;48.386;11.738;2023-11-19T12:58:32;0.63;;;0.40;;
48040;SDS011;33815;48.386;11.738;2023-11-19T13:01:03;0.40;;;0.40;;
48040;SDS011;33815;48.386;11.738;2023-11-19T13:03:30;1.65;;;0.40;;
48040;SDS011;33815;48.386;11.738;2023-11-19T13:06:17;2.38;;;1.70;;
48040;SDS011;33815;48.386;11.738;2023-11-19T13:08:46;0.32;;;0.32;;
48040;SDS011;33815;48.386;11.738;2023-11-19T13:11:15;0.52;;;0.47;;
48040;SDS011;33815;48.386;11.738;2023-11-19T13:14:02;0.40;;;0.40;;
48040;SDS011;33815;48.386;11.738;2023-11-19T13:16:33;0.50;;;0.47;;
48040;SDS011;33815;48.386;11.738;2023-11-19T13:19:01;0.30;;;0.30;;
48040;SDS011;33815;48.386;11.738;2023-11-19T13:21:27;0.40;;;0.40;;
48040;SDS011;33815;48.386;11.738;2023-11-19T13:23:54;0.60;;;0.45;;
48040;SDS011;33815;48.386;11.738;2023-11-19T13:26:20;0.43;;;0.43;;
48040;SDS011;33815;48.386;11.738;2023-11-19T13:28:45;0.70;;;0.50;;
48040;SDS011;33815;48.386;11.738;2023-11-19T13:31:11;3.25;;;0.50;;
48040;SDS011;33815;48.386;11.738;2023-11-19T13:33:36;0.63;;;0.30;;
48040;SDS011;33815;48.386;11.738;2023-11-19T13:36:02;0.40;;;0.40;;
48040;SDS011;33815;48.386;11.738;2023-11-19T13:38:33;0.43;;;0.40;;
48040;SDS011;33815;48.386;11.738;2023-11-19T13:41:00;0.40;;;0.40;;
48040;SDS011;33815;48.386;11.738;2023-11-19T13:43:26;0.50;;;0.50;;
48040;SDS011;33815;48.386;11.738;2023-11-19T13:45:53;0.40;;;0.40;;
48040;SDS011;33815;48.386;11.738;2023-11-19T13:48:19;0.82;;;0.70;;
48040;SDS011;33815;48.386;11.738;2023-11-19T13:50:44;0.50;;;0.50;;
48040;SDS011;33815;48.386;11.738;2023-11-19T13:53:10;0.50;;;0.50;;
48040;SDS011;33815;48.386;11.738;2023-11-19T13:55:35;0.95;;;0.73;;
48040;SDS011;33815;48.386;11.738;2023-11-19T13:58:01;0.50;;;0.50;;
48040;SDS011;33815;48.386;11.738;2023-11-19T14:00:26;0.30;;;0.30;;
48040;SDS011;33815;48.386;11.738;2023-11-19T14:02:51;0.40;;;0.40;;
48040;SDS011;33815;48.386;11.738;2023-11-19T14:05:17;0.40;;;0.40;;
48040;SDS011;33815;48.386;11.738;2023-11-19T14:07:42;0.43;;;0.43;;
48040;SDS011;33815;48.386;11.738;2023-11-19T14:10:09;0.45;;;0.45;;
48040;SDS011;33815;48.386;11.738;2023-11-19T14:12:36;4.22;;;0.63;;
48040;SDS011;33815;48.386;11.738;2023-11-19T14:15:04;0.50;;;0.50;;
48040;SDS011;33815;48.386;11.738;2023-11-19T14:17:31;0.55;;;0.40;;
48040;SDS011;33815;48.386;11.738;2023-11-19T14:19:57;0.40;;;0.40;;
48040;SDS011;33815;48.386;11.738;2023-11-19T14:22:22;0.40;;;0.40;;
48040;SDS011;33815;48.386;11.738;2023-11-19T14:24:47;0.55;;;0.50;;
48040;SDS011;33815;48.386;11.738;2023-11-19T14:27:13;0.60;;;0.60;;
48040;SDS011;33815;48.386;11.738;2023-11-19T14:29:38;1.02;;;0.70;;
48040;SDS011;33815;48.386;11.738;2023-11-19T14:32:04;0.50;;;0.50;;
48040;SDS011;33815;48.386;11.738;2023-11-19T14:34:30;0.40;;;0.40;;
48040;SDS011;33815;48.386;11.738;2023-11-19T14:36:56;0.57;;;0.57;;
48040;SDS011;33815;48.386;11.738;2023-11-19T14:39:21;0.52;;;0.52;;
48040;SDS011;33815;48.386;11.738;2023-11-19T14:41:47;0.75;;;0.40;;
48040;SDS011;33815;48.386;11.738;2023-11-19T14:44:12;0.73;;;0.52;;
48040;SDS011;33815;48.386;11.738;2023-11-19T14:46:38;0.80;;;0.57;;
48040;SDS011;33815;48.386;11.738;2023-11-19T14:49:03;0.88;;;0.60;;
48040;SDS011;33815;48.386;11.738;2023-11-19T14:51:35;0.40;;;0.40;;